KMFV/MFV METAR and TAF weather

Enter ICAO airport designator
Station Type Date Time Source
KMFV METAR 2021/03/04 21:15 UTC NOAA

KMFV 042115Z AUTO 33009G16KT 300V360 10SM CLR 11/M02 A2985 RMK AO2 T01071017


Station Type Date Time Source
KMFV Decoded METAR 2021/03/04 21:15 UTC NOAA

Melfa / Accomack Airport, VA, United States (KMFV) 37-39N 075-46W
Mar 04, 2021 - 04:15 PM EST / 2021.03.04 2115 UTC
Wind: from the NNW (330 degrees) at 10 MPH (9 KT) gusting to 18 MPH (16 KT) (direction variable):0
Visibility: 10 mile(s):0
Sky conditions: clear
Temperature: 51.3 F (10.7 C)
Dew Point: 28.9 F (-1.7 C)
Relative Humidity: 41%
Pressure (altimeter): 29.85 in. Hg (1010 hPa)
ob: KMFV 042115Z AUTO 33009G16KT 300V360 10SM CLR 11/M02 A2985 RMK AO2 T01071017
cycle: 21

Station Type Date Time Source
KMFV TAF UTC NOAA

Error!

Example: see airport list